createdAt,value
2019-01-14T00:01:07.208Z,28.67
2019-01-14T00:03:37.022Z,27.90
2019-01-14T00:06:10.215Z,28.80
2019-01-14T00:08:38.920Z,31.57
2019-01-14T00:11:08.914Z,40.70
2019-01-14T00:13:38.676Z,41.87
2019-01-14T00:16:08.697Z,29.70
2019-01-14T00:18:38.524Z,27.87
2019-01-14T00:21:08.445Z,27.33
2019-01-14T00:23:38.636Z,28.33
2019-01-14T00:26:08.609Z,31.63
2019-01-14T00:28:38.313Z,32.47
2019-01-14T00:31:08.181Z,36.17
2019-01-14T00:33:38.165Z,30.73
2019-01-14T00:36:08.037Z,29.37
2019-01-14T00:38:38.157Z,34.10
2019-01-14T00:41:08.077Z,27.63
2019-01-14T00:43:37.963Z,34.10
2019-01-14T00:46:07.923Z,29.80
2019-01-14T00:48:37.714Z,31.60
2019-01-14T00:51:08.785Z,34.87
2019-01-14T00:53:38.556Z,33.23
2019-01-14T00:56:08.276Z,34.33
2019-01-14T00:58:39.420Z,29.20
2019-01-14T01:01:09.243Z,39.67
2019-01-14T01:03:39.151Z,39.13
2019-01-14T01:06:08.908Z,28.80
2019-01-14T01:08:38.667Z,29.30
2019-01-14T01:11:08.485Z,28.70
2019-01-14T01:13:38.451Z,39.03
2019-01-14T01:16:08.315Z,34.20
2019-01-14T01:18:38.031Z,40.57
2019-01-14T01:21:07.993Z,32.30
2019-01-14T01:23:37.669Z,29.87
2019-01-14T01:26:07.791Z,40.87
2019-01-14T01:28:39.801Z,36.67
2019-01-14T01:31:09.777Z,39.87
2019-01-14T01:33:39.796Z,41.80
2019-01-14T01:36:09.636Z,37.37
2019-01-14T01:38:39.563Z,36.33
2019-01-14T01:41:09.321Z,34.80
2019-01-14T01:43:39.054Z,38.77
2019-01-14T01:46:09.110Z,29.67
2019-01-14T01:48:38.889Z,29.23
2019-01-14T01:51:08.603Z,31.00
2019-01-14T01:53:38.857Z,31.90
2019-01-14T01:56:08.620Z,30.73
2019-01-14T01:58:38.529Z,44.00
2019-01-14T02:01:08.726Z,50.00
2019-01-14T02:03:38.386Z,48.13
2019-01-14T02:06:08.092Z,43.73
2019-01-14T02:08:37.858Z,43.00
2019-01-14T02:11:07.704Z,39.00
2019-01-14T02:13:37.571Z,50.30
2019-01-14T02:16:07.432Z,50.80
2019-01-14T02:18:37.373Z,60.70
2019-01-14T02:21:07.225Z,48.37
2019-01-14T02:23:37.513Z,48.03
2019-01-14T02:26:07.430Z,48.97
2019-01-14T02:28:37.187Z,49.37
2019-01-14T02:31:07.150Z,46.83
2019-01-14T02:33:37.174Z,50.37
2019-01-14T02:36:07.009Z,52.80
2019-01-14T02:38:36.806Z,58.00
2019-01-14T02:41:06.813Z,61.13
2019-01-14T02:43:36.809Z,54.47
2019-01-14T02:46:06.652Z,56.83
2019-01-14T02:48:36.545Z,60.03
2019-01-14T02:51:06.322Z,66.43
2019-01-14T02:53:36.195Z,66.80
2019-01-14T02:56:06.327Z,63.47
2019-01-14T02:58:36.268Z,70.13
2019-01-14T03:01:06.066Z,58.63
2019-01-14T03:03:35.885Z,71.63
2019-01-14T03:06:06.027Z,66.90
2019-01-14T03:08:35.799Z,65.03
2019-01-14T03:11:05.825Z,72.17
2019-01-14T03:13:36.034Z,72.63
2019-01-14T03:16:06.065Z,80.40
2019-01-14T03:18:35.975Z,69.00
2019-01-14T03:21:05.752Z,71.43
2019-01-14T03:23:35.513Z,52.80
2019-01-14T03:26:05.431Z,58.93
2019-01-14T03:28:35.268Z,62.20
2019-01-14T03:31:05.482Z,81.40
2019-01-14T03:33:35.381Z,69.43
2019-01-14T03:36:05.211Z,61.97
2019-01-14T03:38:35.116Z,55.33
2019-01-14T03:41:04.899Z,66.30
2019-01-14T03:43:34.765Z,70.77
2019-01-14T03:46:04.649Z,67.93
2019-01-14T03:48:34.687Z,48.37
2019-01-14T03:51:04.750Z,48.63
2019-01-14T03:53:34.494Z,31.70
2019-01-14T03:56:04.401Z,36.57
2019-01-14T03:58:34.415Z,42.97
2019-01-14T04:01:04.117Z,38.87
2019-01-14T04:03:33.768Z,34.33
2019-01-14T04:06:03.765Z,29.33
2019-01-14T04:08:33.693Z,25.27
2019-01-14T04:11:03.596Z,26.57
2019-01-14T04:13:33.572Z,28.47
2019-01-14T04:16:03.344Z,29.67
2019-01-14T04:18:33.102Z,26.73
2019-01-14T04:21:03.202Z,27.20
2019-01-14T04:23:32.909Z,26.00
2019-01-14T04:26:02.737Z,30.07
2019-01-14T04:28:32.644Z,26.47
2019-01-14T04:31:02.672Z,28.07
2019-01-14T04:33:32.417Z,29.10
2019-01-14T04:36:02.368Z,29.10
2019-01-14T04:38:32.265Z,28.87
2019-01-14T04:41:02.418Z,34.63
2019-01-14T04:43:32.238Z,39.13
2019-01-14T04:46:02.065Z,44.70
2019-01-14T04:48:31.903Z,61.67
2019-01-14T04:51:01.760Z,56.73
2019-01-14T04:53:31.564Z,55.47
2019-01-14T04:56:01.492Z,54.00
2019-01-14T04:58:31.298Z,57.87
2019-01-14T05:01:01.012Z,52.10
2019-01-14T05:03:31.000Z,56.97
2019-01-14T05:06:00.733Z,54.70
2019-01-14T05:08:30.476Z,49.17
2019-01-14T05:11:00.582Z,55.57
2019-01-14T05:13:30.436Z,52.47
2019-01-14T05:16:00.133Z,57.27
2019-01-14T05:18:30.090Z,49.13
2019-01-14T05:20:59.950Z,50.70
2019-01-14T05:23:30.054Z,60.00
2019-01-14T05:26:00.480Z,59.90
2019-01-14T05:28:30.409Z,41.93
2019-01-14T05:31:00.213Z,47.73
2019-01-14T05:33:31.319Z,40.07
2019-01-14T05:36:00.966Z,44.60
2019-01-14T05:38:31.110Z,33.50
2019-01-14T05:41:00.861Z,32.47
2019-01-14T05:43:30.802Z,35.87
2019-01-14T05:46:00.861Z,36.77
2019-01-14T05:48:31.159Z,43.77
2019-01-14T05:51:01.006Z,49.50
2019-01-14T05:53:30.901Z,46.43
2019-01-14T05:56:00.845Z,43.37
2019-01-14T05:58:30.782Z,47.20
2019-01-14T06:01:00.647Z,55.70
2019-01-14T06:03:30.585Z,53.43
2019-01-14T06:06:00.529Z,44.43
2019-01-14T06:08:30.388Z,52.17
2019-01-14T06:11:00.235Z,44.83
2019-01-14T06:13:30.203Z,51.43
2019-01-14T06:16:00.092Z,52.40
2019-01-14T06:18:30.370Z,54.40
2019-01-14T06:21:00.486Z,56.87
2019-01-14T06:23:30.250Z,44.47
2019-01-14T06:26:00.240Z,59.03
2019-01-14T06:28:29.947Z,75.00
2019-01-14T06:30:59.790Z,64.77
2019-01-14T06:33:29.895Z,61.67
2019-01-14T06:35:59.924Z,59.07
2019-01-14T06:38:29.901Z,56.40
2019-01-14T06:40:59.682Z,84.87
2019-01-14T06:43:29.444Z,51.80
2019-01-14T06:45:59.362Z,55.30
2019-01-14T06:48:29.222Z,51.87
2019-01-14T06:50:58.875Z,36.97
2019-01-14T06:53:28.649Z,53.23
2019-01-14T06:55:58.499Z,43.00
2019-01-14T06:58:28.363Z,43.90
2019-01-14T07:00:58.552Z,50.80
2019-01-14T07:03:28.449Z,47.20
2019-01-14T07:05:58.450Z,47.67
2019-01-14T07:08:28.204Z,58.63
2019-01-14T07:10:58.204Z,67.67
2019-01-14T07:13:29.272Z,50.93
2019-01-14T07:15:59.070Z,73.77
2019-01-14T07:18:31.483Z,66.93
2019-01-14T07:21:01.255Z,72.23
2019-01-14T07:23:32.445Z,68.97
2019-01-14T07:26:02.250Z,78.10
2019-01-14T07:28:32.024Z,69.07
2019-01-14T07:31:01.929Z,65.97
2019-01-14T07:33:31.653Z,55.67
2019-01-14T07:36:01.870Z,47.97
2019-01-14T07:38:34.577Z,51.20
2019-01-14T07:41:04.468Z,50.50
2019-01-14T07:43:34.411Z,50.03
2019-01-14T07:46:04.254Z,45.60
2019-01-14T07:48:34.120Z,53.00
2019-01-14T07:51:04.108Z,57.70
2019-01-14T07:53:33.749Z,51.67
2019-01-14T07:56:03.580Z,46.47
2019-01-14T07:58:33.709Z,37.47
2019-01-14T08:01:03.498Z,37.07
2019-01-14T08:03:33.343Z,30.70
2019-01-14T08:06:04.387Z,39.50
2019-01-14T08:08:34.293Z,54.40
2019-01-14T08:11:04.095Z,60.07
2019-01-14T08:13:33.934Z,57.60
2019-01-14T08:16:03.826Z,68.40
2019-01-14T08:18:33.751Z,62.23
2019-01-14T08:21:03.704Z,69.13
2019-01-14T08:23:33.586Z,66.23
2019-01-14T08:26:03.482Z,49.23
2019-01-14T08:28:33.344Z,51.40
2019-01-14T08:31:03.131Z,50.83
2019-01-14T08:33:32.919Z,45.17
2019-01-14T08:36:03.228Z,56.73
2019-01-14T08:38:33.075Z,52.07
2019-01-14T08:41:02.955Z,48.50
2019-01-14T08:43:35.374Z,49.13
2019-01-14T08:46:05.664Z,45.83
2019-01-14T08:48:36.670Z,46.63
2019-01-14T08:51:06.428Z,46.67
2019-01-14T08:53:36.271Z,36.87
2019-01-14T08:56:06.428Z,35.33
2019-01-14T08:58:36.182Z,36.77
2019-01-14T09:01:06.204Z,34.87
2019-01-14T09:03:36.123Z,30.13
2019-01-14T09:06:05.823Z,37.97
2019-01-14T09:08:35.535Z,40.83
2019-01-14T09:11:05.740Z,62.10
2019-01-14T09:13:35.491Z,44.67
2019-01-14T09:16:05.609Z,40.60
2019-01-14T09:18:35.771Z,36.67
2019-01-14T09:21:05.656Z,34.97
2019-01-14T09:23:35.964Z,40.40
2019-01-14T09:26:06.119Z,35.40
2019-01-14T09:28:37.254Z,34.03
2019-01-14T09:31:07.245Z,37.10
2019-01-14T09:33:37.088Z,40.23
2019-01-14T09:36:07.268Z,30.33
2019-01-14T09:38:37.104Z,25.90
2019-01-14T09:41:07.124Z,27.80
2019-01-14T09:43:37.112Z,33.00
2019-01-14T09:46:06.899Z,31.07
2019-01-14T09:48:36.891Z,28.53
2019-01-14T09:51:06.625Z,24.33
2019-01-14T09:53:36.655Z,23.30
2019-01-14T09:56:06.407Z,20.23
2019-01-14T09:58:36.226Z,22.03
2019-01-14T10:01:06.188Z,26.40
2019-01-14T10:03:35.966Z,22.63
2019-01-14T10:06:05.805Z,25.57
2019-01-14T10:08:42.897Z,24.90
2019-01-14T10:11:07.248Z,18.03
2019-01-14T10:13:36.962Z,17.70
2019-01-14T10:16:07.920Z,17.47
2019-01-14T10:18:37.610Z,15.93
2019-01-14T10:21:07.363Z,17.80
2019-01-14T10:23:37.279Z,16.77
2019-01-14T10:26:07.727Z,17.40
2019-01-14T10:28:37.509Z,23.37
2019-01-14T10:31:07.256Z,22.23
2019-01-14T10:33:36.913Z,19.90
2019-01-14T10:36:07.027Z,15.43
2019-01-14T10:38:36.988Z,27.40
2019-01-14T10:41:06.861Z,29.43
2019-01-14T10:43:36.788Z,18.97
2019-01-14T10:46:06.557Z,19.17
2019-01-14T10:48:36.438Z,14.27
2019-01-14T10:51:06.353Z,17.37
2019-01-14T10:53:36.143Z,23.23
2019-01-14T10:56:06.699Z,16.97
2019-01-14T10:58:36.632Z,23.20
2019-01-14T11:01:06.675Z,16.00
2019-01-14T11:03:36.435Z,17.90
2019-01-14T11:06:06.876Z,17.27
2019-01-14T11:08:37.579Z,16.03
2019-01-14T11:11:07.326Z,18.80
2019-01-14T11:13:37.137Z,15.23
2019-01-14T11:16:07.291Z,16.50
2019-01-14T11:18:37.083Z,20.97
2019-01-14T11:21:06.984Z,17.97
2019-01-14T11:23:36.924Z,14.67
2019-01-14T11:26:11.418Z,13.50
2019-01-14T11:28:42.710Z,18.13
2019-01-14T11:31:12.470Z,13.43
2019-01-14T11:33:42.529Z,13.07
2019-01-14T11:36:12.264Z,15.33
2019-01-14T11:38:48.361Z,12.30
2019-01-14T11:41:18.561Z,16.40
2019-01-14T11:43:48.572Z,16.53
2019-01-14T11:46:18.434Z,11.80
2019-01-14T11:48:48.423Z,21.40
2019-01-14T11:51:18.210Z,20.33
2019-01-14T11:53:48.232Z,17.07
2019-01-14T11:56:56.383Z,16.20
2019-01-14T11:59:26.300Z,14.37
2019-01-14T12:01:56.136Z,19.23
2019-01-14T12:04:26.019Z,13.63
2019-01-14T12:06:56.910Z,18.20
2019-01-14T12:09:26.803Z,19.67
2019-01-14T12:11:57.052Z,14.63
2019-01-14T12:14:26.846Z,15.17
2019-01-14T12:16:56.717Z,18.40
2019-01-14T12:19:26.488Z,19.03
2019-01-14T12:21:56.260Z,18.13
2019-01-14T12:24:26.187Z,20.80
2019-01-14T12:26:56.131Z,15.37
2019-01-14T12:29:27.698Z,17.57
2019-01-14T12:31:57.492Z,13.80
2019-01-14T12:34:27.380Z,15.20
2019-01-14T12:36:57.111Z,16.53
2019-01-14T12:39:27.215Z,17.83
2019-01-14T12:41:58.280Z,15.63
2019-01-14T12:44:27.882Z,15.97
2019-01-14T12:46:57.689Z,17.37
2019-01-14T12:49:27.706Z,16.70
2019-01-14T12:51:57.633Z,14.73
2019-01-14T12:54:27.345Z,13.67
2019-01-14T12:56:57.245Z,28.17
2019-01-14T12:59:27.067Z,17.43
2019-01-14T13:01:56.905Z,13.30
2019-01-14T13:04:26.868Z,15.33
2019-01-14T13:06:56.610Z,16.23
2019-01-14T13:09:26.841Z,16.50
2019-01-14T13:11:56.684Z,19.67
2019-01-14T13:14:26.731Z,17.50
2019-01-14T13:16:56.601Z,15.73
2019-01-14T13:19:26.350Z,23.57
2019-01-14T13:21:57.554Z,18.20
2019-01-14T13:24:27.388Z,20.33
2019-01-14T13:26:57.351Z,29.07
2019-01-14T13:29:27.114Z,21.57
2019-01-14T13:31:56.895Z,18.67
2019-01-14T13:34:28.279Z,34.93
2019-01-14T13:36:58.339Z,23.87
2019-01-14T13:39:33.974Z,21.53
2019-01-14T13:41:59.894Z,27.20
2019-01-14T13:44:29.588Z,18.03
2019-01-14T13:46:59.474Z,17.30
2019-01-14T13:49:29.459Z,19.07
2019-01-14T13:51:59.127Z,20.23
2019-01-14T13:54:30.083Z,18.53
2019-01-14T13:57:00.127Z,17.17
2019-01-14T13:59:29.916Z,16.57
2019-01-14T14:01:59.879Z,23.03
2019-01-14T14:04:29.636Z,23.90
2019-01-14T14:06:59.433Z,21.73
2019-01-14T14:09:29.284Z,22.60
2019-01-14T14:11:59.150Z,24.10
2019-01-14T14:14:29.185Z,22.67
2019-01-14T14:16:58.923Z,28.17
2019-01-14T14:19:28.688Z,20.93
2019-01-14T14:21:58.527Z,19.43
2019-01-14T14:24:28.520Z,20.47
2019-01-14T14:26:58.253Z,28.83
2019-01-14T14:29:28.078Z,21.77
2019-01-14T14:31:57.914Z,16.03
2019-01-14T14:34:27.780Z,22.73
2019-01-14T14:36:57.615Z,23.53
2019-01-14T14:39:27.687Z,21.33
2019-01-14T14:41:57.329Z,21.90
2019-01-14T14:44:27.145Z,18.07
2019-01-14T14:46:57.462Z,21.20
2019-01-14T14:49:27.410Z,18.20
2019-01-14T14:51:57.119Z,21.90
2019-01-14T14:54:26.884Z,17.57
2019-01-14T14:56:56.522Z,19.60
2019-01-14T14:59:26.352Z,19.37
2019-01-14T15:01:58.280Z,18.70
2019-01-14T15:04:28.111Z,20.10
2019-01-14T15:06:57.828Z,21.90
2019-01-14T15:09:31.718Z,21.93
2019-01-14T15:11:59.295Z,19.37
2019-01-14T15:14:29.125Z,20.90
2019-01-14T15:16:59.064Z,23.97
2019-01-14T15:19:29.147Z,18.37
2019-01-14T15:21:58.886Z,20.63
2019-01-14T15:24:28.626Z,21.23
2019-01-14T15:26:58.344Z,27.93
2019-01-14T15:29:28.337Z,23.37
2019-01-14T15:31:58.151Z,30.97
2019-01-14T15:34:28.133Z,30.60
2019-01-14T15:36:57.884Z,22.90
2019-01-14T15:39:27.681Z,27.40
2019-01-14T15:41:57.779Z,69.83
2019-01-14T15:44:27.784Z,71.23
2019-01-14T15:46:57.643Z,47.43
2019-01-14T15:49:27.600Z,46.03
2019-01-14T15:51:57.391Z,44.27
2019-01-14T15:54:28.292Z,48.17
2019-01-14T15:56:58.073Z,37.33
2019-01-14T15:59:27.846Z,40.17
2019-01-14T16:01:57.552Z,43.70
2019-01-14T16:04:28.722Z,28.00
2019-01-14T16:06:58.509Z,33.73
2019-01-14T16:09:28.834Z,33.33
2019-01-14T16:11:58.677Z,42.43
2019-01-14T16:14:28.518Z,32.50
2019-01-14T16:16:58.326Z,27.50
2019-01-14T16:19:29.044Z,23.80
2019-01-14T16:21:59.245Z,26.63
2019-01-14T16:24:30.443Z,22.53
2019-01-14T16:27:00.289Z,22.90
2019-01-14T16:29:30.214Z,23.33
2019-01-14T16:32:00.445Z,26.13
2019-01-14T16:34:31.707Z,21.87
2019-01-14T16:37:01.591Z,22.83
2019-01-14T16:39:32.374Z,25.27
2019-01-14T16:42:03.799Z,23.87
2019-01-14T16:44:33.685Z,23.97
2019-01-14T16:47:03.406Z,24.03
2019-01-14T16:49:34.479Z,25.80
2019-01-14T16:52:04.463Z,22.07
2019-01-14T16:54:34.388Z,28.80
2019-01-14T16:57:04.620Z,30.33
2019-01-14T16:59:34.520Z,25.53
2019-01-14T17:02:04.653Z,28.97
2019-01-14T17:04:34.510Z,27.70
2019-01-14T17:07:04.192Z,31.57
2019-01-14T17:09:33.897Z,34.30
2019-01-14T17:12:05.141Z,41.83
2019-01-14T17:14:34.956Z,46.90
2019-01-14T17:17:04.856Z,43.03
2019-01-14T17:19:34.725Z,49.77
2019-01-14T17:22:04.496Z,48.43
2019-01-14T17:24:34.407Z,49.10
2019-01-14T17:27:04.268Z,52.77
2019-01-14T17:29:35.489Z,50.87
2019-01-14T17:32:05.268Z,56.73
2019-01-14T17:34:35.260Z,44.70
2019-01-14T17:37:06.479Z,32.47
2019-01-14T17:39:36.378Z,29.43
2019-01-14T17:42:06.345Z,26.00
2019-01-14T17:44:36.155Z,27.37
2019-01-14T17:47:06.127Z,28.10
2019-01-14T17:49:35.947Z,28.67
2019-01-14T17:52:05.917Z,28.80
2019-01-14T17:54:35.663Z,27.33
2019-01-14T17:57:05.383Z,28.40
2019-01-14T17:59:35.157Z,31.87
2019-01-14T18:02:05.229Z,27.97
2019-01-14T18:04:35.126Z,27.10
2019-01-14T18:07:06.293Z,29.43
2019-01-14T18:09:36.147Z,28.43
2019-01-14T18:12:05.924Z,37.27
2019-01-14T18:14:35.725Z,39.47
2019-01-14T18:17:05.592Z,39.20
2019-01-14T18:19:35.599Z,32.47
2019-01-14T18:22:05.796Z,30.70
2019-01-14T18:24:35.649Z,32.40
2019-01-14T18:27:05.493Z,33.47
2019-01-14T18:29:35.410Z,36.83
2019-01-14T18:32:06.539Z,34.53
2019-01-14T18:34:36.383Z,35.33
2019-01-14T18:37:06.109Z,34.13
2019-01-14T18:39:35.943Z,39.30
2019-01-14T18:42:05.723Z,43.93
2019-01-14T18:44:35.455Z,42.57
2019-01-14T18:47:05.299Z,34.97
2019-01-14T18:49:35.227Z,39.37
2019-01-14T18:52:05.299Z,35.63
2019-01-14T18:54:35.098Z,38.50
2019-01-14T18:57:06.076Z,35.03
2019-01-14T18:59:35.881Z,40.53
2019-01-14T19:02:06.074Z,29.60
2019-01-14T19:04:35.887Z,36.47
2019-01-14T19:07:08.352Z,32.33
2019-01-14T19:09:38.202Z,34.63
2019-01-14T19:12:08.233Z,30.70
2019-01-14T19:14:38.055Z,45.83
2019-01-14T19:17:09.162Z,31.30
2019-01-14T19:19:39.228Z,36.37
2019-01-14T19:22:09.223Z,42.33
2019-01-14T19:24:39.034Z,47.47
2019-01-14T19:27:08.801Z,53.77
2019-01-14T19:29:38.643Z,68.37
2019-01-14T19:32:08.557Z,89.60
2019-01-14T19:34:38.316Z,61.07
2019-01-14T19:37:07.993Z,60.10
2019-01-14T19:39:37.881Z,54.30
2019-01-14T19:42:07.855Z,61.93
2019-01-14T19:44:37.648Z,60.90
2019-01-14T19:47:07.429Z,64.87
2019-01-14T19:49:37.288Z,52.97
2019-01-14T19:52:07.303Z,52.90
2019-01-14T19:54:37.006Z,57.03
2019-01-14T19:57:08.772Z,54.50
2019-01-14T19:59:38.552Z,53.03
2019-01-14T20:02:09.073Z,40.33
2019-01-14T20:04:40.252Z,41.90
2019-01-14T20:07:11.143Z,43.97
2019-01-14T20:09:41.595Z,43.87
2019-01-14T20:12:11.662Z,47.97
2019-01-14T20:14:41.646Z,49.67
2019-01-14T20:17:11.345Z,54.57
2019-01-14T20:19:41.335Z,51.80
2019-01-14T20:22:11.203Z,45.60
2019-01-14T20:24:42.169Z,35.80
2019-01-14T20:27:12.034Z,37.83
2019-01-14T20:29:41.944Z,40.27
2019-01-14T20:32:11.899Z,37.50
2019-01-14T20:34:41.798Z,41.27
2019-01-14T20:37:11.524Z,45.30
2019-01-14T20:39:41.461Z,37.53
2019-01-14T20:42:11.280Z,33.83
2019-01-14T20:44:41.090Z,35.33
2019-01-14T20:47:10.952Z,33.63
2019-01-14T20:49:40.984Z,33.73
2019-01-14T20:52:12.297Z,34.40
2019-01-14T20:54:42.155Z,30.50
2019-01-14T20:57:11.964Z,36.20
2019-01-14T20:59:41.920Z,33.83
2019-01-14T21:02:11.801Z,49.50
2019-01-14T21:04:41.404Z,60.23
2019-01-14T21:07:12.319Z,48.80
2019-01-14T21:09:42.204Z,52.90
2019-01-14T21:12:12.092Z,54.70
2019-01-14T21:14:41.883Z,48.87
2019-01-14T21:17:11.768Z,47.30
2019-01-14T21:19:41.422Z,59.80
2019-01-14T21:22:11.654Z,43.97
2019-01-14T21:24:42.570Z,52.27
2019-01-14T21:27:12.387Z,64.90
2019-01-14T21:29:42.112Z,41.47
2019-01-14T21:32:12.191Z,37.97
2019-01-14T21:34:41.946Z,40.80
2019-01-14T21:37:11.825Z,42.80
2019-01-14T21:39:41.722Z,41.20
2019-01-14T21:42:11.502Z,38.57
2019-01-14T21:44:41.389Z,36.67
2019-01-14T21:47:11.428Z,34.60
2019-01-14T21:49:41.142Z,37.57
2019-01-14T21:52:10.919Z,35.77
2019-01-14T21:54:40.629Z,36.47
2019-01-14T21:57:10.300Z,32.53
2019-01-14T21:59:40.069Z,41.07
2019-01-14T22:02:09.898Z,52.43
2019-01-14T22:04:39.760Z,51.53
2019-01-14T22:07:09.704Z,51.10
2019-01-14T22:09:39.414Z,46.70
2019-01-14T22:12:09.432Z,52.17
2019-01-14T22:14:39.139Z,43.70
2019-01-14T22:17:09.987Z,44.27
2019-01-14T22:19:39.740Z,44.30
2019-01-14T22:22:09.615Z,45.53
2019-01-14T22:24:39.559Z,42.03
2019-01-14T22:27:10.628Z,63.87
2019-01-14T22:29:40.487Z,62.27
2019-01-14T22:32:10.116Z,49.30
2019-01-14T22:34:39.870Z,35.17
2019-01-14T22:37:10.764Z,37.80
2019-01-14T22:39:40.704Z,30.73
2019-01-14T22:42:10.586Z,32.33
2019-01-14T22:44:41.962Z,35.83
2019-01-14T22:47:12.129Z,31.23
2019-01-14T22:49:41.959Z,31.30
2019-01-14T22:52:11.712Z,34.47
2019-01-14T22:54:41.632Z,32.80
2019-01-14T22:57:11.453Z,35.20
2019-01-14T22:59:41.463Z,36.37
2019-01-14T23:02:11.281Z,31.10
2019-01-14T23:04:41.136Z,35.53
2019-01-14T23:07:10.839Z,35.80
2019-01-14T23:09:40.607Z,35.97
2019-01-14T23:12:10.604Z,40.10
2019-01-14T23:14:40.376Z,36.83
2019-01-14T23:17:10.264Z,38.03
2019-01-14T23:19:40.150Z,40.93
2019-01-14T23:22:10.016Z,34.67
2019-01-14T23:24:40.416Z,32.73
2019-01-14T23:27:10.128Z,36.40
2019-01-14T23:29:39.888Z,33.83
2019-01-14T23:32:09.551Z,33.00
2019-01-14T23:34:39.448Z,37.23
2019-01-14T23:37:09.198Z,42.23
2019-01-14T23:39:39.011Z,36.90
2019-01-14T23:42:08.956Z,32.90
2019-01-14T23:44:38.815Z,35.20
2019-01-14T23:47:08.966Z,33.83
2019-01-14T23:49:38.903Z,31.77
2019-01-14T23:52:08.696Z,34.53
2019-01-14T23:54:38.613Z,42.07
2019-01-14T23:57:08.507Z,40.53
2019-01-14T23:59:38.217Z,37.73
